createdAt,value
2023-01-31T00:00:51.032Z,23.27
2023-01-31T00:03:17.527Z,17.80
2023-01-31T00:05:43.999Z,18.93
2023-01-31T00:08:10.528Z,19.23
2023-01-31T00:10:37.325Z,21.60
2023-01-31T00:13:03.929Z,17.73
2023-01-31T00:15:30.508Z,21.20
2023-01-31T00:17:57.031Z,21.17
2023-01-31T00:20:23.491Z,20.40
2023-01-31T00:22:49.919Z,21.70
2023-01-31T00:25:16.461Z,20.20
2023-01-31T00:27:42.925Z,22.33
2023-01-31T00:30:10.992Z,18.10
2023-01-31T00:32:38.109Z,21.20
2023-01-31T00:35:04.847Z,15.67
2023-01-31T00:37:31.345Z,19.70
2023-01-31T00:39:57.833Z,21.90
2023-01-31T00:42:24.383Z,14.30
2023-01-31T00:44:50.828Z,22.73
2023-01-31T00:47:17.312Z,24.00
2023-01-31T00:49:43.795Z,15.60
2023-01-31T00:52:10.406Z,25.23
2023-01-31T00:54:37.241Z,21.07
2023-01-31T00:57:04.318Z,20.33
2023-01-31T00:59:38.444Z,22.77
2023-01-31T01:02:06.104Z,24.73
2023-01-31T01:04:35.412Z,16.77
2023-01-31T01:07:02.246Z,20.50
2023-01-31T01:09:33.549Z,23.00
2023-01-31T01:12:00.097Z,17.23
2023-01-31T01:14:26.806Z,21.17
2023-01-31T01:16:53.844Z,16.97
2023-01-31T01:19:21.967Z,20.40
2023-01-31T01:21:48.815Z,24.10
2023-01-31T01:24:17.966Z,18.13
2023-01-31T01:26:44.936Z,26.13
2023-01-31T01:29:12.427Z,19.90
2023-01-31T01:31:39.508Z,22.77
2023-01-31T01:34:07.300Z,23.77
2023-01-31T01:36:35.272Z,21.07
2023-01-31T01:39:06.367Z,23.23
2023-01-31T01:41:37.993Z,20.70
2023-01-31T01:44:24.552Z,22.03
2023-01-31T01:46:51.485Z,21.80
2023-01-31T01:49:31.329Z,22.37
2023-01-31T01:52:00.270Z,23.03
2023-01-31T01:54:31.585Z,20.23
2023-01-31T01:57:00.803Z,19.53
2023-01-31T01:59:47.312Z,19.30
2023-01-31T02:02:14.871Z,20.97
2023-01-31T02:04:42.480Z,15.17
2023-01-31T02:07:11.421Z,18.50
2023-01-31T02:09:57.877Z,20.10
2023-01-31T02:12:25.132Z,21.27
2023-01-31T02:14:56.696Z,20.30
2023-01-31T02:17:24.555Z,18.03
2023-01-31T02:19:58.476Z,22.33
2023-01-31T02:22:31.743Z,17.93
2023-01-31T02:25:12.575Z,19.23
2023-01-31T02:27:45.180Z,17.70
2023-01-31T02:30:20.967Z,18.53
2023-01-31T02:32:56.444Z,14.87
2023-01-31T02:35:42.235Z,15.40
2023-01-31T02:38:12.102Z,18.17
2023-01-31T02:40:45.211Z,20.17
2023-01-31T02:43:56.646Z,23.10
2023-01-31T02:46:26.173Z,23.40
2023-01-31T02:49:04.344Z,17.83
2023-01-31T02:51:33.375Z,10.73
2023-01-31T02:54:06.260Z,18.47
2023-01-31T02:56:34.856Z,13.30
2023-01-31T02:59:07.363Z,15.10
2023-01-31T03:01:37.883Z,16.97
2023-01-31T03:04:06.955Z,16.17
2023-01-31T03:06:41.428Z,20.47
2023-01-31T03:09:24.208Z,18.80
2023-01-31T03:11:54.197Z,17.23
2023-01-31T03:14:42.139Z,15.50
2023-01-31T03:17:33.790Z,13.20
2023-01-31T03:20:09.727Z,18.60
2023-01-31T03:22:40.869Z,19.03
2023-01-31T03:25:09.965Z,16.87
2023-01-31T03:27:39.324Z,15.90
2023-01-31T03:30:12.480Z,17.37
2023-01-31T03:32:53.458Z,21.80
2023-01-31T03:35:27.133Z,16.70
2023-01-31T03:38:00.158Z,14.53
2023-01-31T03:40:26.780Z,20.37
2023-01-31T03:43:00.932Z,20.63
2023-01-31T03:45:38.395Z,16.43
2023-01-31T03:48:07.804Z,17.33
2023-01-31T03:50:39.778Z,18.87
2023-01-31T03:53:11.903Z,22.50
2023-01-31T03:55:48.747Z,15.93
2023-01-31T03:58:17.261Z,31.03
2023-01-31T04:00:46.904Z,22.13
2023-01-31T04:03:20.555Z,18.83
2023-01-31T04:05:51.673Z,19.60
2023-01-31T04:08:23.523Z,20.43
2023-01-31T04:10:59.067Z,18.87
2023-01-31T04:13:26.799Z,26.47
2023-01-31T04:15:54.166Z,19.50
2023-01-31T04:18:22.115Z,22.27
2023-01-31T04:20:48.762Z,24.07
2023-01-31T04:23:15.281Z,23.40
2023-01-31T04:25:42.028Z,26.30
2023-01-31T04:28:08.613Z,23.17
2023-01-31T04:30:36.825Z,23.40
2023-01-31T04:33:04.055Z,25.37
2023-01-31T04:35:30.641Z,25.67
2023-01-31T04:37:57.598Z,27.60
2023-01-31T04:40:24.195Z,21.57
2023-01-31T04:42:53.090Z,26.07
2023-01-31T04:45:21.004Z,29.90
2023-01-31T04:47:49.308Z,32.07
2023-01-31T04:50:17.943Z,29.30
2023-01-31T04:52:45.112Z,26.03
2023-01-31T04:55:12.346Z,22.63
2023-01-31T04:57:39.859Z,27.93
2023-01-31T05:00:06.863Z,32.80
2023-01-31T05:02:34.812Z,24.70
2023-01-31T05:05:01.713Z,28.73
2023-01-31T05:07:28.277Z,28.70
2023-01-31T05:09:57.879Z,27.80
2023-01-31T05:12:25.607Z,29.33
2023-01-31T05:14:52.156Z,27.67
2023-01-31T05:17:27.360Z,27.43
2023-01-31T05:19:54.083Z,28.33
2023-01-31T05:22:25.085Z,23.60
2023-01-31T05:24:53.092Z,27.20
2023-01-31T05:27:20.133Z,25.67
2023-01-31T05:29:47.808Z,26.53
2023-01-31T05:32:14.680Z,31.00
2023-01-31T05:34:42.381Z,24.40
2023-01-31T05:37:09.279Z,26.33
2023-01-31T05:39:39.824Z,25.23
2023-01-31T05:42:06.578Z,23.27
2023-01-31T05:44:33.631Z,28.50
2023-01-31T05:47:01.350Z,28.90
2023-01-31T05:49:33.474Z,29.00
2023-01-31T05:52:01.965Z,24.10
2023-01-31T05:54:28.780Z,34.83
2023-01-31T05:56:55.856Z,27.03
2023-01-31T05:59:24.745Z,32.10
2023-01-31T06:01:52.588Z,28.23
2023-01-31T06:04:19.233Z,32.37
2023-01-31T06:06:45.911Z,32.27
2023-01-31T06:09:12.625Z,32.97
2023-01-31T06:11:39.183Z,26.33
2023-01-31T06:14:07.181Z,31.90
2023-01-31T06:16:34.036Z,27.53
2023-01-31T06:19:02.083Z,29.63
2023-01-31T06:21:28.795Z,30.90
2023-01-31T06:23:55.382Z,27.53
2023-01-31T06:26:24.863Z,25.50
2023-01-31T06:28:56.740Z,32.17
2023-01-31T06:31:24.708Z,26.00
2023-01-31T06:33:51.635Z,29.37
2023-01-31T06:36:19.649Z,25.97
2023-01-31T06:38:50.611Z,32.63
2023-01-31T06:41:21.104Z,33.50
2023-01-31T06:43:48.068Z,29.20
2023-01-31T06:46:15.156Z,29.27
2023-01-31T06:48:41.877Z,23.80
2023-01-31T06:51:09.748Z,26.83
2023-01-31T06:53:36.635Z,23.83
2023-01-31T06:56:06.139Z,23.13
2023-01-31T06:58:33.931Z,23.30
2023-01-31T07:01:07.849Z,24.87
2023-01-31T07:03:37.095Z,24.03
2023-01-31T07:06:04.588Z,23.60
2023-01-31T07:08:35.338Z,23.27
2023-01-31T07:11:06.531Z,31.93
2023-01-31T07:13:33.389Z,17.80
2023-01-31T07:16:03.219Z,17.47
2023-01-31T07:18:30.205Z,20.67
2023-01-31T07:20:58.916Z,20.60
2023-01-31T07:23:25.717Z,17.97
2023-01-31T07:25:52.415Z,21.90
2023-01-31T07:28:19.119Z,23.73
2023-01-31T07:30:51.586Z,18.57
2023-01-31T07:33:18.820Z,17.83
2023-01-31T07:35:46.302Z,15.83
2023-01-31T07:38:13.031Z,19.20
2023-01-31T07:40:41.304Z,17.03
2023-01-31T07:43:07.985Z,16.97
2023-01-31T07:45:34.954Z,15.50
2023-01-31T07:48:01.720Z,14.90
2023-01-31T07:50:28.536Z,21.13
2023-01-31T07:53:00.858Z,12.90
2023-01-31T07:55:28.693Z,15.73
2023-01-31T07:57:55.430Z,15.43
2023-01-31T08:00:40.721Z,13.43
2023-01-31T08:03:33.475Z,16.63
2023-01-31T08:06:11.770Z,17.20
2023-01-31T08:08:40.315Z,15.03
2023-01-31T08:11:06.895Z,16.37
2023-01-31T08:13:35.177Z,16.43
2023-01-31T08:16:02.504Z,18.60
2023-01-31T08:18:29.373Z,12.90
2023-01-31T08:20:56.901Z,16.10
2023-01-31T08:23:23.446Z,15.97
2023-01-31T08:25:49.971Z,17.30
2023-01-31T08:28:16.648Z,14.27
2023-01-31T08:30:48.328Z,17.27
2023-01-31T08:33:16.997Z,12.00
2023-01-31T08:35:43.460Z,15.67
2023-01-31T08:38:16.355Z,15.57
2023-01-31T08:40:46.533Z,14.17
2023-01-31T08:43:13.443Z,15.00
2023-01-31T08:45:40.017Z,14.83
2023-01-31T08:48:06.731Z,17.77
2023-01-31T08:50:33.826Z,13.63
2023-01-31T08:53:03.156Z,15.03
2023-01-31T08:55:31.221Z,10.60
2023-01-31T08:58:00.056Z,18.30
2023-01-31T09:00:27.135Z,14.17
2023-01-31T09:02:54.666Z,15.03
2023-01-31T09:05:21.594Z,18.83
2023-01-31T09:07:48.216Z,18.17
2023-01-31T09:10:14.716Z,27.57
2023-01-31T09:12:50.767Z,19.27
2023-01-31T09:15:17.731Z,16.87
2023-01-31T09:17:44.398Z,20.73
2023-01-31T09:20:11.363Z,25.73
2023-01-31T09:22:38.549Z,16.97
2023-01-31T09:25:05.516Z,21.80
2023-01-31T09:27:32.321Z,19.73
2023-01-31T09:29:59.034Z,20.27
2023-01-31T09:32:25.619Z,17.83
2023-01-31T09:34:52.151Z,18.37
2023-01-31T09:37:18.701Z,21.57
2023-01-31T09:39:45.209Z,22.80
2023-01-31T09:42:11.912Z,19.07
2023-01-31T09:44:43.347Z,13.33
2023-01-31T09:47:13.271Z,15.33
2023-01-31T09:49:47.148Z,15.70
2023-01-31T09:52:18.187Z,16.87
2023-01-31T09:54:49.205Z,19.67
2023-01-31T09:57:16.127Z,17.10
2023-01-31T10:00:11.047Z,21.37
2023-01-31T10:02:46.005Z,15.57
2023-01-31T10:05:33.335Z,20.90
2023-01-31T10:08:04.116Z,18.10
2023-01-31T10:10:35.975Z,17.27
2023-01-31T10:13:11.741Z,15.93
2023-01-31T10:15:42.479Z,18.10
2023-01-31T10:18:30.471Z,16.37
2023-01-31T10:21:00.804Z,19.50
2023-01-31T10:23:39.285Z,13.87
2023-01-31T10:26:10.608Z,19.50
2023-01-31T10:28:48.517Z,20.03
2023-01-31T10:31:33.924Z,18.40
2023-01-31T10:34:13.595Z,16.83
2023-01-31T10:36:40.135Z,15.97
2023-01-31T10:39:10.523Z,16.93
2023-01-31T10:41:40.175Z,21.43
2023-01-31T10:44:10.893Z,17.57
2023-01-31T10:46:37.449Z,16.87
2023-01-31T10:49:03.992Z,21.17
2023-01-31T10:51:52.232Z,15.93
2023-01-31T10:54:20.360Z,17.40
2023-01-31T10:56:48.311Z,23.60
2023-01-31T10:59:23.737Z,20.40
2023-01-31T11:02:00.155Z,21.43
2023-01-31T11:04:32.591Z,22.13
2023-01-31T11:07:05.089Z,16.83
2023-01-31T11:09:37.682Z,17.60
2023-01-31T11:12:10.030Z,20.63
2023-01-31T11:14:37.193Z,15.27
2023-01-31T11:17:03.813Z,16.38
2023-01-31T11:19:39.124Z,19.90
2023-01-31T11:22:06.657Z,19.30
2023-01-31T11:24:34.348Z,17.80
2023-01-31T11:27:03.618Z,18.03
2023-01-31T11:29:32.424Z,14.75
2023-01-31T11:32:00.012Z,16.95
2023-01-31T11:34:29.702Z,16.42
2023-01-31T11:37:25.581Z,15.97
2023-01-31T11:39:58.911Z,17.27
2023-01-31T11:42:30.653Z,15.75
2023-01-31T11:45:32.727Z,21.95
2023-01-31T11:48:17.903Z,16.88
2023-01-31T11:50:48.009Z,15.77
2023-01-31T11:53:28.436Z,16.42
2023-01-31T11:56:02.951Z,17.97
2023-01-31T11:58:32.511Z,20.37
2023-01-31T12:01:18.406Z,16.48
2023-01-31T12:04:01.310Z,15.47
2023-01-31T12:06:34.474Z,14.75
2023-01-31T12:09:03.159Z,14.77
2023-01-31T12:11:34.089Z,17.88
2023-01-31T12:14:06.687Z,17.33
2023-01-31T12:16:34.025Z,16.75
2023-01-31T12:19:09.919Z,16.53
2023-01-31T12:21:42.683Z,17.07
2023-01-31T12:24:12.161Z,12.20
2023-01-31T12:26:47.890Z,16.17
2023-01-31T12:29:25.746Z,15.30
2023-01-31T12:31:52.302Z,13.33
2023-01-31T12:34:25.349Z,14.43
2023-01-31T12:36:57.849Z,15.23
2023-01-31T12:39:39.595Z,18.37
2023-01-31T12:42:24.440Z,16.93
2023-01-31T12:45:06.472Z,11.73
2023-01-31T12:47:46.669Z,13.30
2023-01-31T12:50:20.457Z,15.63
2023-01-31T12:53:03.403Z,20.73
2023-01-31T12:56:02.554Z,22.27
2023-01-31T12:58:53.604Z,19.43
2023-01-31T13:01:47.673Z,15.27
2023-01-31T13:04:20.524Z,16.97
2023-01-31T13:06:53.523Z,17.43
2023-01-31T13:09:24.001Z,15.60
2023-01-31T13:11:55.174Z,17.20
2023-01-31T13:14:23.114Z,15.80
2023-01-31T13:16:52.775Z,18.70
2023-01-31T13:19:26.431Z,17.20
2023-01-31T13:21:56.511Z,16.30
2023-01-31T13:24:27.208Z,18.57
2023-01-31T13:26:59.418Z,18.48
2023-01-31T13:29:45.432Z,23.63
2023-01-31T13:32:28.546Z,21.20
2023-01-31T13:35:05.351Z,22.20
2023-01-31T13:37:33.864Z,26.90
2023-01-31T13:40:06.952Z,22.37
2023-01-31T13:42:34.159Z,26.00
2023-01-31T13:45:07.752Z,19.47
2023-01-31T13:47:40.605Z,27.30
2023-01-31T13:50:17.811Z,28.98
2023-01-31T13:52:52.320Z,26.93
2023-01-31T13:55:24.528Z,27.60
2023-01-31T13:58:00.252Z,27.33
2023-01-31T14:00:34.787Z,24.75
2023-01-31T14:03:02.745Z,31.30
2023-01-31T14:05:41.257Z,32.23
2023-01-31T14:08:26.540Z,31.35
2023-01-31T14:10:57.404Z,32.67
2023-01-31T14:13:37.531Z,27.58
2023-01-31T14:16:25.643Z,27.07
2023-01-31T14:18:52.559Z,25.38
2023-01-31T14:21:40.804Z,31.53
2023-01-31T14:24:19.471Z,29.10
2023-01-31T14:26:54.063Z,24.77
2023-01-31T14:29:26.788Z,30.27
2023-01-31T14:31:56.845Z,23.83
2023-01-31T14:34:31.235Z,25.00
2023-01-31T14:37:19.871Z,29.90
2023-01-31T14:40:00.642Z,28.17
2023-01-31T14:42:46.021Z,28.85
2023-01-31T14:45:25.071Z,27.15
2023-01-31T14:47:53.341Z,24.92
2023-01-31T14:50:24.074Z,26.50
2023-01-31T14:53:08.697Z,28.33
2023-01-31T14:55:38.648Z,25.50
2023-01-31T14:58:06.535Z,26.52
2023-01-31T15:00:36.264Z,25.42
2023-01-31T15:03:25.940Z,29.25
2023-01-31T15:05:57.618Z,26.33
2023-01-31T15:08:34.570Z,28.50
2023-01-31T15:11:15.044Z,25.97
2023-01-31T15:13:47.550Z,21.90
2023-01-31T15:16:23.599Z,25.67
2023-01-31T15:18:56.335Z,21.98
2023-01-31T15:21:45.650Z,23.55
2023-01-31T15:24:17.356Z,25.50
2023-01-31T15:26:44.580Z,19.85
2023-01-31T15:29:16.772Z,20.20
2023-01-31T15:31:47.843Z,22.00
2023-01-31T15:34:25.186Z,22.33
2023-01-31T15:37:20.388Z,19.75
2023-01-31T15:39:53.352Z,22.40
2023-01-31T15:42:25.045Z,19.17
2023-01-31T15:45:11.625Z,19.77
2023-01-31T15:47:38.128Z,21.10
2023-01-31T15:50:18.737Z,23.25
2023-01-31T15:52:46.420Z,23.07
2023-01-31T15:55:23.129Z,20.93
2023-01-31T15:58:01.790Z,23.75
2023-01-31T16:00:30.566Z,20.35
2023-01-31T16:03:01.896Z,21.77
2023-01-31T16:05:32.802Z,19.90
2023-01-31T16:08:00.573Z,20.17
2023-01-31T16:10:28.219Z,20.40
2023-01-31T16:12:55.358Z,20.27
2023-01-31T16:15:32.661Z,20.77
2023-01-31T16:18:03.441Z,21.90
2023-01-31T16:20:52.174Z,26.60
2023-01-31T16:23:32.585Z,26.83
2023-01-31T16:26:08.485Z,25.73
2023-01-31T16:28:40.100Z,24.35
2023-01-31T16:31:08.533Z,26.13
2023-01-31T16:33:35.189Z,25.98
2023-01-31T16:36:13.560Z,26.60
2023-01-31T16:38:43.223Z,26.45
2023-01-31T16:41:12.908Z,32.20
2023-01-31T16:43:41.419Z,31.75
2023-01-31T16:46:19.587Z,25.70
2023-01-31T16:49:00.920Z,28.30
2023-01-31T16:51:31.205Z,28.63
2023-01-31T16:54:16.538Z,29.30
2023-01-31T16:56:46.865Z,35.35
2023-01-31T16:59:41.080Z,27.55
2023-01-31T17:02:10.703Z,30.08
2023-01-31T17:04:44.020Z,28.98
2023-01-31T17:07:16.344Z,33.00
2023-01-31T17:09:43.088Z,30.98
2023-01-31T17:12:20.807Z,35.17
2023-01-31T17:14:47.361Z,31.38
2023-01-31T17:17:20.571Z,34.27
2023-01-31T17:19:48.359Z,39.05
2023-01-31T17:22:15.333Z,33.45
2023-01-31T17:24:41.888Z,32.38
2023-01-31T17:27:12.751Z,28.67
2023-01-31T17:29:39.239Z,36.03
2023-01-31T17:32:05.888Z,29.90
2023-01-31T17:34:33.663Z,25.45
2023-01-31T17:37:00.133Z,30.40
2023-01-31T17:39:26.570Z,31.13
2023-01-31T17:41:53.149Z,33.47
2023-01-31T17:44:22.152Z,28.85
2023-01-31T17:46:48.831Z,36.63
2023-01-31T17:49:15.383Z,30.63
2023-01-31T17:51:41.943Z,30.25
2023-01-31T17:54:08.520Z,28.87
2023-01-31T17:56:35.048Z,31.02
2023-01-31T17:59:01.580Z,33.83
2023-01-31T18:01:28.100Z,30.93
2023-01-31T18:03:54.707Z,33.77
2023-01-31T18:06:21.210Z,34.03
2023-01-31T18:08:48.653Z,25.92
2023-01-31T18:11:16.179Z,30.30
2023-01-31T18:13:43.130Z,31.45
2023-01-31T18:16:11.792Z,37.80
2023-01-31T18:18:40.575Z,36.03
2023-01-31T18:21:11.197Z,37.53
2023-01-31T18:23:37.838Z,39.13
2023-01-31T18:26:08.002Z,33.60
2023-01-31T18:28:34.664Z,41.93
2023-01-31T18:31:13.665Z,35.00
2023-01-31T18:33:40.743Z,45.10
2023-01-31T18:36:09.929Z,33.67
2023-01-31T18:38:37.053Z,38.33
2023-01-31T18:41:05.501Z,40.33
2023-01-31T18:43:32.028Z,37.93
2023-01-31T18:45:58.525Z,43.67
2023-01-31T18:48:25.037Z,50.23
2023-01-31T18:50:51.551Z,45.03
2023-01-31T18:53:18.048Z,45.37
2023-01-31T18:55:44.482Z,41.03
2023-01-31T18:58:10.951Z,46.50
2023-01-31T19:00:37.465Z,48.87
2023-01-31T19:03:03.957Z,57.53
2023-01-31T19:05:30.578Z,57.73
2023-01-31T19:07:57.099Z,67.70
2023-01-31T19:10:23.557Z,45.00
2023-01-31T19:12:50.005Z,45.77
2023-01-31T19:15:16.549Z,47.17
2023-01-31T19:17:43.305Z,41.00
2023-01-31T19:20:10.266Z,49.17
2023-01-31T19:22:36.747Z,40.13
2023-01-31T19:25:05.382Z,47.57
2023-01-31T19:27:31.914Z,55.17
2023-01-31T19:29:58.791Z,52.13
2023-01-31T19:32:25.254Z,47.33
2023-01-31T19:34:54.008Z,47.77
2023-01-31T19:37:20.747Z,35.50
2023-01-31T19:39:47.314Z,37.63
2023-01-31T19:42:13.813Z,36.33
2023-01-31T19:44:40.421Z,27.23
2023-01-31T19:47:06.891Z,20.60
2023-01-31T19:49:34.280Z,19.53
2023-01-31T19:52:00.980Z,29.53
2023-01-31T19:54:28.170Z,21.83
2023-01-31T19:56:54.694Z,22.93
2023-01-31T19:59:21.162Z,29.58
2023-01-31T20:01:47.732Z,22.10
2023-01-31T20:04:14.184Z,25.43
2023-01-31T20:06:40.687Z,24.43
2023-01-31T20:09:09.145Z,17.43
2023-01-31T20:11:36.689Z,15.47
2023-01-31T20:14:04.653Z,15.57
2023-01-31T20:16:31.259Z,14.90
2023-01-31T20:18:57.805Z,15.23
2023-01-31T20:21:24.416Z,15.03
2023-01-31T20:23:50.865Z,18.90
2023-01-31T20:26:18.565Z,14.37
2023-01-31T20:28:45.866Z,11.13
2023-01-31T20:31:13.309Z,14.43
2023-01-31T20:33:39.806Z,11.43
2023-01-31T20:36:06.494Z,17.48
2023-01-31T20:38:33.475Z,15.83
2023-01-31T20:41:00.006Z,20.40
2023-01-31T20:43:26.877Z,17.10
2023-01-31T20:45:53.452Z,20.87
2023-01-31T20:48:20.400Z,16.93
2023-01-31T20:50:56.594Z,19.37
2023-01-31T20:53:23.504Z,16.20
2023-01-31T20:55:57.464Z,13.70
2023-01-31T20:58:24.910Z,11.37
2023-01-31T21:00:52.118Z,16.30
2023-01-31T21:03:18.587Z,15.97
2023-01-31T21:05:45.272Z,15.57
2023-01-31T21:08:11.753Z,21.43
2023-01-31T21:10:38.371Z,14.43
2023-01-31T21:13:04.870Z,14.17
2023-01-31T21:15:31.480Z,22.13
2023-01-31T21:17:57.969Z,12.30
2023-01-31T21:20:24.506Z,14.03
2023-01-31T21:22:50.981Z,15.47
2023-01-31T21:25:17.473Z,20.70
2023-01-31T21:27:44.157Z,23.13
2023-01-31T21:30:11.009Z,22.40
2023-01-31T21:32:37.483Z,29.37
2023-01-31T21:35:04.120Z,34.17
2023-01-31T21:37:30.717Z,33.70
2023-01-31T21:39:57.225Z,29.60
2023-01-31T21:42:23.701Z,38.37
2023-01-31T21:44:50.131Z,32.67
2023-01-31T21:47:16.639Z,34.20
2023-01-31T21:49:43.404Z,41.50
2023-01-31T21:52:12.365Z,46.37
2023-01-31T21:54:38.809Z,47.13
2023-01-31T21:57:05.360Z,43.63
2023-01-31T21:59:32.666Z,50.90
2023-01-31T22:01:59.493Z,44.60
2023-01-31T22:04:26.178Z,54.23
2023-01-31T22:06:53.471Z,53.57
2023-01-31T22:09:19.972Z,54.90
2023-01-31T22:11:47.844Z,47.50
2023-01-31T22:14:15.428Z,48.40
2023-01-31T22:16:42.393Z,46.77
2023-01-31T22:19:10.382Z,44.43
2023-01-31T22:21:37.190Z,47.63
2023-01-31T22:24:05.933Z,48.63
2023-01-31T22:26:34.640Z,48.63
2023-01-31T22:29:02.123Z,58.97
2023-01-31T22:31:29.335Z,39.63
2023-01-31T22:33:56.192Z,62.30
2023-01-31T22:36:24.465Z,44.13
2023-01-31T22:38:51.312Z,46.53
2023-01-31T22:41:19.988Z,55.67
2023-01-31T22:43:48.070Z,46.43
2023-01-31T22:46:15.877Z,49.20
2023-01-31T22:48:42.514Z,45.93
2023-01-31T22:51:13.442Z,44.13
2023-01-31T22:53:40.329Z,40.77
2023-01-31T22:56:12.881Z,44.20
2023-01-31T22:58:39.413Z,39.77
2023-01-31T23:01:13.446Z,36.10
2023-01-31T23:03:39.922Z,33.53
2023-01-31T23:06:06.533Z,34.80
2023-01-31T23:08:33.131Z,33.40
2023-01-31T23:11:06.984Z,39.13
2023-01-31T23:13:33.836Z,39.43
2023-01-31T23:16:00.667Z,29.33
2023-01-31T23:18:27.357Z,34.03
2023-01-31T23:20:53.939Z,32.03
2023-01-31T23:23:20.924Z,30.03
2023-01-31T23:25:47.418Z,35.53
2023-01-31T23:28:13.887Z,28.20
2023-01-31T23:30:40.427Z,27.10
2023-01-31T23:33:06.928Z,28.00
2023-01-31T23:35:33.386Z,30.67
2023-01-31T23:38:00.070Z,27.07
2023-01-31T23:40:26.775Z,26.83
2023-01-31T23:42:53.265Z,32.63
2023-01-31T23:45:19.726Z,33.47
2023-01-31T23:47:46.272Z,23.87
2023-01-31T23:50:12.762Z,25.40
2023-01-31T23:52:39.285Z,30.47
2023-01-31T23:55:06.203Z,35.83
2023-01-31T23:57:32.722Z,29.50
2023-01-31T23:59:59.200Z,35.43
